Time;durP1;ratioP1;P1;durP2;ratioP2;P2;SDS_P1;SDS_P2;PMS_P1;PMS_P2;Temp;Humidity;BMP_temperature;BMP_pressure;BME280_temperature;BME280_humidity;BME280_pressure;Samples;Min_cycle;Max_cycle;Signal;HPM_P1;HPM_P2
2022/01/14 00:01:02;;;;;;;22.63;13.57;;;8.80;81.40;;;;;;4958532;28;20033;-77
2022/01/14 00:03:27;;;;;;;20.13;12.57;;;8.80;81.40;;;;;;4975828;28;20027;-77
2022/01/14 00:05:53;;;;;;;21.15;13.27;;;8.80;81.40;;;;;;4975825;28;20023;-77
2022/01/14 00:08:19;;;;;;;20.77;13.13;;;8.80;81.40;;;;;;4958470;28;20486;-76
2022/01/14 00:10:49;;;;;;;21.13;12.93;;;8.80;81.30;;;;;;4958195;28;20038;-76
2022/01/14 00:13:39;;;;;;;20.15;12.73;;;8.80;81.30;;;;;;4958299;28;20058;-77
2022/01/14 00:16:01;;;;;;;20.70;12.77;;;8.80;81.40;;;;;;4975513;28;20054;-77
2022/01/14 00:18:26;;;;;;;21.40;13.32;;;8.80;81.40;;;;;;4975756;28;20487;-78
2022/01/14 00:20:52;;;;;;;21.52;12.23;;;8.80;81.50;;;;;;4958218;28;20026;-77
2022/01/14 00:23:19;;;;;;;19.73;12.10;;;8.70;81.60;;;;;;4975540;28;20031;-76
2022/01/14 00:33:56;;;;;;;20.30;12.68;;;8.80;81.60;;;;;;4975666;28;20110;-77
2022/01/14 00:36:22;;;;;;;20.27;11.73;;;8.80;81.70;;;;;;4957920;28;20059;-75
2022/01/14 00:38:47;;;;;;;19.55;11.95;;;8.80;81.70;;;;;;4975240;28;20029;-78
2022/01/14 00:41:14;;;;;;;19.63;11.75;;;8.80;81.70;;;;;;4957731;28;20023;-76
2022/01/14 00:43:41;;;;;;;19.42;12.85;;;8.80;81.70;;;;;;4957802;28;20034;-78
2022/01/14 00:46:08;;;;;;;18.95;11.82;;;8.70;81.70;;;;;;4957904;28;20034;-76
2022/01/14 00:48:34;;;;;;;19.70;11.48;;;8.80;81.70;;;;;;4975250;28;20481;-77
2022/01/14 00:50:59;;;;;;;18.27;11.40;;;8.70;81.80;;;;;;4957495;28;20022;-76
2022/01/14 00:53:25;;;;;;;18.35;11.43;;;8.70;81.90;;;;;;4957429;28;20506;-76
2022/01/14 00:56:05;;;;;;;18.23;11.63;;;8.80;82.10;;;;;;4957671;28;20497;-77
2022/01/14 01:01:14;;;;;;;20.20;12.07;;;8.80;82.20;;;;;;4974887;28;20034;-78
2022/01/14 01:03:40;;;;;;;19.50;11.82;;;8.80;82.20;;;;;;4957475;28;20030;-78
2022/01/14 01:06:07;;;;;;;20.40;12.20;;;8.80;82.30;;;;;;4957552;28;20034;-77
2022/01/14 01:08:34;;;;;;;19.25;12.02;;;8.80;82.30;;;;;;4974635;28;20026;-76
2022/01/14 01:11:01;;;;;;;19.00;11.93;;;8.80;82.20;;;;;;4957160;28;20026;-77
2022/01/14 01:13:34;;;;;;;18.27;11.52;;;8.80;82.30;;;;;;4974573;28;20099;-76
2022/01/14 01:16:00;;;;;;;18.95;11.80;;;8.70;82.30;;;;;;4957322;28;20057;-77
2022/01/14 01:18:26;;;;;;;18.15;11.05;;;8.80;82.90;;;;;;4957169;28;20054;-77
2022/01/14 01:20:52;;;;;;;18.92;12.18;;;8.80;82.40;;;;;;4956882;28;20501;-78
2022/01/14 01:23:18;;;;;;;17.40;10.98;;;8.80;82.40;;;;;;4974316;28;20384;-78
2022/01/14 01:25:49;;;;;;;18.63;11.63;;;8.70;82.40;;;;;;4974362;28;20065;-78
2022/01/14 01:28:15;;;;;;;19.73;12.20;;;8.80;82.40;;;;;;4957115;28;20544;-77
2022/01/14 01:31:05;;;;;;;19.83;12.20;;;8.80;82.40;;;;;;4974048;28;20361;-77
2022/01/14 01:33:32;;;;;;;18.30;11.07;;;8.80;82.40;;;;;;4974231;28;20537;-77
2022/01/14 01:35:58;;;;;;;18.95;12.43;;;8.80;82.50;;;;;;4956970;28;20117;-76
2022/01/14 01:38:23;;;;;;;19.85;12.27;;;8.80;82.40;;;;;;4956973;28;20118;-77
2022/01/14 01:40:49;;;;;;;18.17;11.80;;;8.80;82.40;;;;;;4956732;28;20053;-76
2022/01/14 01:43:16;;;;;;;19.25;11.45;;;8.80;82.40;;;;;;4956734;28;20027;-77
2022/01/14 01:45:44;;;;;;;20.02;12.02;;;8.70;82.30;;;;;;4956843;28;20489;-76
2022/01/14 01:48:10;;;;;;;19.08;11.70;;;8.70;82.30;;;;;;4957051;28;20031;-77
2022/01/14 01:50:36;;;;;;;18.25;11.50;;;8.80;82.40;;;;;;4956551;28;20046;-76
2022/01/14 01:53:03;;;;;;;19.52;11.75;;;8.80;82.40;;;;;;4973745;28;20030;-76
2022/01/14 01:55:28;;;;;;;18.38;11.90;;;8.70;82.40;;;;;;4956754;28;20071;-77
2022/01/14 01:57:54;;;;;;;19.65;12.20;;;8.80;82.40;;;;;;4956592;28;20117;-76
2022/01/14 02:00:22;;;;;;;19.10;12.20;;;8.70;82.40;;;;;;4973781;28;20482;-77
2022/01/14 02:02:49;;;;;;;18.05;11.48;;;8.80;82.40;;;;;;4973465;28;20031;-77
2022/01/14 02:05:16;;;;;;;18.33;11.70;;;8.70;82.40;;;;;;4973373;28;20035;-76
2022/01/14 02:07:42;;;;;;;19.45;11.50;;;8.80;82.40;;;;;;4956615;28;20454;-77
2022/01/14 02:10:08;;;;;;;17.58;11.65;;;8.70;82.40;;;;;;4956586;28;20081;-76
2022/01/14 02:12:46;;;;;;;20.13;12.40;;;8.70;82.30;;;;;;4973167;28;20023;-76
2022/01/14 02:15:25;;;;;;;19.63;12.30;;;8.70;82.40;;;;;;4956453;28;20027;-76
2022/01/14 02:23:10;;;;;;;18.63;12.05;;;8.80;82.30;;;;;;4973590;28;20034;-77
2022/01/14 02:25:36;;;;;;;17.42;11.27;;;8.70;82.10;;;;;;4973563;28;20027;-76
2022/01/14 02:28:08;;;;;;;19.40;11.95;;;8.70;82.00;;;;;;4973556;28;20031;-77
2022/01/14 02:30:36;;;;;;;17.42;12.07;;;8.70;82.10;;;;;;4956065;28;20027;-77
2022/01/14 02:33:02;;;;;;;17.77;12.05;;;8.70;82.00;;;;;;4973183;28;20062;-78
2022/01/14 02:35:29;;;;;;;19.02;12.32;;;8.70;82.00;;;;;;4956321;28;20455;-77
2022/01/14 02:37:54;;;;;;;16.88;11.27;;;8.70;81.90;;;;;;4956234;28;20050;-77
2022/01/14 02:40:21;;;;;;;17.17;11.32;;;8.70;81.90;;;;;;4973475;28;20069;-77
2022/01/14 02:42:48;;;;;;;16.70;10.77;;;8.70;81.90;;;;;;4955883;28;20030;-77
2022/01/14 02:45:15;;;;;;;16.95;10.95;;;8.70;81.80;;;;;;4956076;28;20037;-78
2022/01/14 02:47:42;;;;;;;16.63;10.70;;;8.70;81.70;;;;;;4956126;28;20077;-77
2022/01/14 02:50:12;;;;;;;17.60;11.32;;;8.70;81.70;;;;;;4956147;28;20031;-76
2022/01/14 02:55:21;;;;;;;18.60;11.38;;;8.70;81.80;;;;;;4973653;28;20026;-76
2022/01/14 02:57:52;;;;;;;17.17;10.90;;;8.70;81.70;;;;;;4956008;28;20473;-77
2022/01/14 03:00:21;;;;;;;16.48;10.50;;;8.70;82.30;;;;;;4956013;28;20441;-77
2022/01/14 03:02:49;;;;;;;16.58;11.35;;;8.70;81.80;;;;;;4973016;28;20061;-79
2022/01/14 03:05:16;;;;;;;15.48;10.57;;;8.70;81.80;;;;;;4956051;28;20023;-78
2022/01/14 03:07:42;;;;;;;17.48;11.43;;;8.70;81.70;;;;;;4973236;28;20046;-76
2022/01/14 03:10:10;;;;;;;16.27;10.63;;;8.70;81.70;;;;;;4973314;28;20081;-77
2022/01/14 03:12:36;;;;;;;15.43;10.25;;;8.70;81.70;;;;;;4955412;28;20062;-77
2022/01/14 03:15:03;;;;;;;15.65;10.20;;;8.70;81.80;;;;;;4956126;28;20019;-76
2022/01/14 03:17:29;;;;;;;17.05;11.05;;;8.70;81.80;;;;;;4957332;28;20023;-76
2022/01/14 03:19:58;;;;;;;16.10;10.52;;;8.70;81.60;;;;;;4959332;28;20102;-76
2022/01/14 03:22:34;;;;;;;14.30;9.75;;;8.70;81.60;;;;;;4976407;28;20030;-75
2022/01/14 03:27:46;;;;;;;15.63;10.18;;;8.70;81.60;;;;;;4976879;28;20479;-76
2022/01/14 03:30:12;;;;;;;15.73;10.80;;;8.70;81.70;;;;;;4959201;28;20126;-76
2022/01/14 03:32:39;;;;;;;16.35;11.00;;;8.70;81.70;;;;;;4958823;28;20054;-76
2022/01/14 03:35:05;;;;;;;16.27;10.32;;;8.70;81.60;;;;;;4959376;28;20118;-76
2022/01/14 03:37:31;;;;;;;16.35;10.20;;;8.70;81.60;;;;;;4976322;28;20027;-76
2022/01/14 03:39:57;;;;;;;14.82;9.90;;;8.70;81.60;;;;;;4959102;28;20482;-77
2022/01/14 03:42:22;;;;;;;16.27;10.43;;;8.70;81.60;;;;;;4959069;28;20352;-76
2022/01/14 03:44:48;;;;;;;14.43;10.05;;;8.70;81.40;;;;;;4958955;28;20027;-76
2022/01/14 03:47:13;;;;;;;15.80;10.88;;;8.70;81.40;;;;;;4958909;28;20054;-77
2022/01/14 03:49:39;;;;;;;15.30;9.90;;;8.70;81.40;;;;;;4976226;28;20151;-76
2022/01/14 03:52:05;;;;;;;15.38;9.55;;;8.70;81.40;;;;;;4958438;28;20077;-76
2022/01/14 03:54:30;;;;;;;15.50;10.07;;;8.70;81.50;;;;;;4958800;28;20117;-76
2022/01/14 03:56:56;;;;;;;14.98;9.75;;;8.70;81.40;;;;;;4956514;28;20533;-76
2022/01/14 03:59:21;;;;;;;14.13;9.75;;;8.70;81.40;;;;;;4971056;28;20613;-76
2022/01/14 04:01:47;;;;;;;15.32;10.18;;;8.70;81.30;;;;;;4977813;28;20109;-76
2022/01/14 04:04:12;;;;;;;15.48;9.70;;;8.70;81.30;;;;;;4995400;28;20474;-77
2022/01/14 04:06:38;;;;;;;14.52;10.05;;;8.60;81.20;;;;;;4977964;28;20030;-78
2022/01/14 04:09:04;;;;;;;14.48;9.68;;;8.70;81.20;;;;;;4995282;28;20436;-76
2022/01/14 04:11:30;;;;;;;14.48;9.60;;;8.70;81.20;;;;;;4977499;28;20070;-75
2022/01/14 04:14:07;;;;;;;15.15;9.85;;;8.70;81.20;;;;;;4977824;28;20026;-77
2022/01/14 04:16:32;;;;;;;13.45;9.38;;;8.70;81.20;;;;;;4977733;28;20022;-74
2022/01/14 04:18:58;;;;;;;15.63;9.93;;;8.70;81.20;;;;;;4977600;28;20027;-76
2022/01/14 04:21:23;;;;;;;13.90;9.25;;;8.70;81.30;;;;;;4977302;28;20028;-77
2022/01/14 04:23:49;;;;;;;16.38;10.40;;;8.70;81.30;;;;;;4994940;28;20541;-76
2022/01/14 04:26:15;;;;;;;13.95;8.65;;;8.70;81.20;;;;;;4977431;28;20022;-75
2022/01/14 04:28:40;;;;;;;13.65;9.48;;;8.70;81.20;;;;;;4977062;28;20030;-77
2022/01/14 04:31:07;;;;;;;14.23;9.63;;;8.70;81.10;;;;;;4994237;28;20034;-75
2022/01/14 04:33:34;;;;;;;15.25;9.52;;;8.70;81.20;;;;;;4977291;28;20448;-75
2022/01/14 04:36:01;;;;;;;15.15;9.73;;;8.70;81.20;;;;;;4994772;28;20018;-78
2022/01/14 04:38:28;;;;;;;14.10;9.30;;;8.70;81.20;;;;;;4994684;28;20058;-77
2022/01/14 04:40:55;;;;;;;13.45;9.38;;;8.70;81.20;;;;;;4976893;28;20466;-76
2022/01/14 04:43:21;;;;;;;14.63;9.40;;;8.70;81.20;;;;;;4994553;28;20029;-77
2022/01/14 04:46:02;;;;;;;15.15;9.20;;;8.70;81.20;;;;;;4994552;28;20042;-77
2022/01/14 04:48:32;;;;;;;;;;;8.60;81.10;;;;;;4994928;28;20050;-76
2022/01/14 04:50:59;;;;;;;13.88;8.88;;;8.60;81.10;;;;;;4976816;28;20000;-77
2022/01/14 04:53:26;;;;;;;14.10;9.55;;;8.70;81.30;;;;;;4976815;28;20035;-76
2022/01/14 04:55:52;;;;;;;15.77;9.38;;;8.60;81.20;;;;;;4976950;28;20121;-76
2022/01/14 04:58:18;;;;;;;14.90;9.50;;;8.70;81.30;;;;;;4976907;28;20513;-75
2022/01/14 05:00:44;;;;;;;14.55;9.95;;;8.60;81.20;;;;;;4976601;28;20375;-76
2022/01/14 05:03:09;;;;;;;14.85;9.75;;;8.70;81.30;;;;;;4976785;28;20034;-76
2022/01/14 05:05:39;;;;;;;15.32;9.77;;;8.60;81.20;;;;;;4976917;28;20027;-77
2022/01/14 05:08:11;;;;;;;13.82;8.88;;;8.70;81.20;;;;;;4976694;28;20041;-77
2022/01/14 05:11:41;;;;;;;14.80;8.80;;;8.70;81.20;;;;;;4976510;28;20023;-75
2022/01/14 05:13:32;;;;;;;13.95;9.40;;;8.60;81.20;;;;;;4980803;28;20049;-76
2022/01/14 05:15:58;;;;;;;14.80;9.23;;;8.60;81.10;;;;;;4976487;28;20030;-76
2022/01/14 05:18:24;;;;;;;13.93;9.20;;;8.60;81.20;;;;;;4976517;28;20029;-76
2022/01/14 05:20:51;;;;;;;14.45;9.40;;;8.60;81.20;;;;;;4976222;28;20030;-76
2022/01/14 05:23:16;;;;;;;14.68;9.27;;;8.60;81.30;;;;;;4976465;28;20577;-76
2022/01/14 05:25:42;;;;;;;13.93;8.75;;;8.60;81.80;;;;;;4976444;28;20113;-76
2022/01/14 05:28:07;;;;;;;13.65;8.85;;;8.70;81.30;;;;;;4994018;28;20029;-76
2022/01/14 05:30:33;;;;;;;14.93;10.00;;;8.60;81.30;;;;;;4993543;28;20022;-77
2022/01/14 05:32:59;;;;;;;13.70;9.13;;;8.70;81.30;;;;;;4993131;28;20026;-76
2022/01/14 05:35:27;;;;;;;14.55;9.20;;;8.60;81.20;;;;;;4976382;28;20042;-76
2022/01/14 05:37:52;;;;;;;13.93;8.93;;;8.70;81.30;;;;;;4993594;28;20509;-76
2022/01/14 05:40:19;;;;;;;13.48;8.93;;;8.70;81.40;;;;;;4975358;28;20057;-76
2022/01/14 05:42:45;;;;;;;13.93;9.32;;;8.60;81.20;;;;;;4993333;28;20406;-78
2022/01/14 05:45:13;;;;;;;14.40;9.85;;;8.70;81.30;;;;;;4993528;28;20026;-76
2022/01/14 05:47:39;;;;;;;15.02;9.70;;;8.60;81.20;;;;;;4993349;28;20026;-76
2022/01/14 05:50:11;;;;;;;12.98;8.98;;;8.70;81.20;;;;;;4974546;28;20026;-78
2022/01/14 05:52:37;;;;;;;13.88;9.32;;;8.60;81.20;;;;;;4972771;28;20041;-79
2022/01/14 05:55:04;;;;;;;13.80;9.15;;;8.60;81.30;;;;;;4990673;28;20026;-75
2022/01/14 05:57:30;;;;;;;15.40;10.40;;;8.60;81.30;;;;;;4964245;28;20488;-76
2022/01/14 05:59:56;;;;;;;15.50;10.02;;;8.50;81.30;;;;;;4965632;28;20030;-78
2022/01/14 06:02:22;;;;;;;14.85;9.80;;;8.60;81.20;;;;;;4971262;28;20035;-78
2022/01/14 06:04:47;;;;;;;14.88;9.65;;;8.60;81.10;;;;;;4969322;28;20042;-78
2022/01/14 06:07:13;;;;;;;13.52;9.15;;;8.60;81.10;;;;;;4953171;28;20034;-81
2022/01/14 06:09:38;;;;;;;14.48;9.75;;;8.60;81.10;;;;;;4968618;28;20030;-76
2022/01/14 06:12:05;;;;;;;13.80;9.60;;;8.60;81.10;;;;;;4984340;28;20034;-78
2022/01/14 06:14:30;;;;;;;13.70;9.10;;;8.50;81.00;;;;;;4972154;28;20030;-79
2022/01/14 06:16:56;;;;;;;15.77;10.27;;;8.60;81.10;;;;;;4990051;28;20026;-78
2022/01/14 06:19:21;;;;;;;16.10;10.48;;;8.60;81.10;;;;;;4989598;28;20393;-75
2022/01/14 06:21:47;;;;;;;17.63;10.90;;;8.60;80.80;;;;;;4971778;28;20033;-76
2022/01/14 06:24:13;;;;;;;15.88;9.85;;;8.60;80.70;;;;;;4972209;28;20030;-77
2022/01/14 06:26:38;;;;;;;17.02;10.55;;;8.60;80.80;;;;;;4989970;28;20374;-73
2022/01/14 06:29:04;;;;;;;15.15;9.43;;;8.60;80.90;;;;;;4989474;28;20809;-76
2022/01/14 06:31:29;;;;;;;15.02;9.98;;;8.60;80.90;;;;;;4953867;28;20066;-76
2022/01/14 06:33:55;;;;;;;16.48;10.38;;;8.70;81.00;;;;;;4971651;28;20031;-76
2022/01/14 06:36:20;;;;;;;16.75;9.95;;;8.60;81.00;;;;;;4961268;28;20041;-76
2022/01/14 06:38:46;;;;;;;16.23;10.20;;;8.70;81.20;;;;;;4965707;28;20022;-77
2022/01/14 06:41:11;;;;;;;15.82;10.18;;;8.70;81.10;;;;;;4953629;28;20129;-75
2022/01/14 06:43:37;;;;;;;14.95;9.68;;;8.60;81.10;;;;;;4971774;28;20039;-77
2022/01/14 06:46:02;;;;;;;15.63;9.82;;;8.70;81.20;;;;;;4954163;28;20121;-75
2022/01/14 06:48:28;;;;;;;16.17;10.38;;;8.60;81.10;;;;;;4954836;28;20022;-75
2022/01/14 06:50:55;;;;;;;15.70;9.80;;;8.60;81.10;;;;;;4971909;28;20026;-75
2022/01/14 06:53:20;;;;;;;17.08;10.18;;;8.60;81.10;;;;;;4975630;28;20034;-77
2022/01/14 06:55:46;;;;;;;15.60;9.32;;;8.60;81.20;;;;;;4974980;28;20034;-77
2022/01/14 06:58:11;;;;;;;15.63;10.48;;;8.60;81.10;;;;;;4975815;28;20037;-76
2022/01/14 07:00:37;;;;;;;15.73;10.00;;;8.60;81.20;;;;;;4957937;28;20038;-82
2022/01/14 07:03:02;;;;;;;15.77;10.40;;;8.60;81.10;;;;;;4955312;28;20094;-79
2022/01/14 07:05:28;;;;;;;14.80;10.00;;;8.60;81.10;;;;;;4974895;28;20113;-76
2022/01/14 07:07:54;;;;;;;16.60;10.52;;;8.60;81.10;;;;;;4958042;28;20122;-76
2022/01/14 07:10:20;;;;;;;15.68;10.40;;;8.60;81.00;;;;;;4958001;28;20130;-76
2022/01/14 07:12:45;;;;;;;15.77;9.82;;;8.60;81.00;;;;;;4975435;28;20034;-75
2022/01/14 07:15:14;;;;;;;16.30;10.65;;;8.60;81.10;;;;;;4975605;28;20038;-77
2022/01/14 07:17:41;;;;;;;15.32;10.23;;;8.60;81.20;;;;;;4975978;28;20030;-76
2022/01/14 07:20:12;;;;;;;16.05;10.25;;;8.60;81.20;;;;;;4957454;28;20034;-76
2022/01/14 07:22:43;;;;;;;21.83;9.93;;;8.60;81.20;;;;;;4957569;28;20209;-77
2022/01/14 07:25:09;;;;;;;17.50;10.05;;;8.70;81.40;;;;;;4959208;28;20062;-78
2022/01/14 07:27:35;;;;;;;16.27;10.15;;;8.70;81.20;;;;;;4974700;28;20405;-78
2022/01/14 07:30:01;;;;;;;21.85;10.30;;;8.70;81.30;;;;;;4974575;28;20038;-79
2022/01/14 07:32:26;;;;;;;20.77;10.48;;;8.60;81.20;;;;;;4973571;28;20086;-77
2022/01/14 07:34:52;;;;;;;17.50;10.55;;;8.60;81.20;;;;;;4975114;28;20031;-76
2022/01/14 07:37:18;;;;;;;19.35;10.05;;;8.60;81.30;;;;;;4975311;28;20022;-77
2022/01/14 07:39:44;;;;;;;15.82;9.80;;;8.60;81.30;;;;;;4955160;28;20129;-77
2022/01/14 07:42:10;;;;;;;16.75;10.18;;;8.60;81.40;;;;;;4963789;28;20042;-76
2022/01/14 07:44:37;;;;;;;18.33;10.38;;;8.60;81.40;;;;;;4974963;28;20038;-77
2022/01/14 07:47:03;;;;;;;16.35;9.90;;;8.60;81.50;;;;;;4955105;28;20082;-76
2022/01/14 07:49:29;;;;;;;17.77;10.05;;;8.60;81.40;;;;;;4975129;28;20031;-80
2022/01/14 07:51:54;;;;;;;17.38;9.63;;;8.60;81.30;;;;;;4974162;28;20046;-79
2022/01/14 07:54:20;;;;;;;16.67;9.88;;;8.60;81.40;;;;;;4957869;28;20030;-78
2022/01/14 07:56:50;;;;;;;17.52;10.20;;;8.60;81.30;;;;;;4957666;28;20023;-77
2022/01/14 07:59:18;;;;;;;17.38;10.93;;;8.60;81.30;;;;;;4957183;28;20114;-76
2022/01/14 08:01:45;;;;;;;15.27;9.57;;;8.60;81.40;;;;;;4956409;28;20406;-78
2022/01/14 08:04:13;;;;;;;16.25;10.32;;;8.60;81.30;;;;;;4973137;28;20022;-80
2022/01/14 08:06:45;;;;;;;15.73;9.98;;;8.70;81.40;;;;;;4973869;28;20089;-78
2022/01/14 08:09:11;;;;;;;15.15;9.48;;;8.60;81.30;;;;;;4974229;28;20054;-78
2022/01/14 08:11:36;;;;;;;16.58;10.15;;;8.60;81.30;;;;;;4972414;28;20027;-77
2022/01/14 08:14:02;;;;;;;15.98;9.60;;;8.60;81.30;;;;;;4956148;28;20645;-76
2022/01/14 08:16:27;;;;;;;16.10;10.02;;;8.60;81.30;;;;;;4974047;28;20023;-76
2022/01/14 08:18:53;;;;;;;15.18;9.70;;;8.60;81.40;;;;;;4972299;28;20539;-77
2022/01/14 08:21:19;;;;;;;14.80;9.82;;;8.70;81.40;;;;;;4973485;28;20023;-75
2022/01/14 08:23:44;;;;;;;15.32;9.40;;;8.60;81.30;;;;;;4973448;28;20030;-76
2022/01/14 08:26:10;;;;;;;18.02;10.68;;;8.60;81.40;;;;;;4956437;28;20390;-80
2022/01/14 08:28:35;;;;;;;16.35;10.02;;;8.60;81.40;;;;;;4956385;28;20525;-79
2022/01/14 08:31:01;;;;;;;17.13;10.52;;;8.60;81.40;;;;;;4956424;28;20570;-78
2022/01/14 08:33:26;;;;;;;15.57;9.35;;;8.60;81.40;;;;;;4974227;28;20041;-78
2022/01/14 08:35:52;;;;;;;15.15;9.57;;;8.60;81.50;;;;;;4974557;28;20027;-76
2022/01/14 08:38:18;;;;;;;16.50;10.05;;;8.60;81.50;;;;;;4974456;28;20390;-77
2022/01/14 08:40:44;;;;;;;17.08;11.02;;;8.60;81.50;;;;;;4990729;28;20101;-77
2022/01/14 08:43:09;;;;;;;16.25;10.20;;;8.60;81.60;;;;;;4990780;28;20292;-75
2022/01/14 08:45:35;;;;;;;16.23;10.10;;;8.60;81.60;;;;;;4973451;28;20577;-77
2022/01/14 08:48:01;;;;;;;17.13;10.10;;;8.60;81.60;;;;;;4990673;28;20125;-75
2022/01/14 08:50:34;;;;;;;16.23;10.10;;;8.60;81.60;;;;;;4990646;28;20034;-76
2022/01/14 08:52:59;;;;;;;16.50;10.18;;;8.60;81.50;;;;;;4990445;28;20497;-75
2022/01/14 08:55:26;;;;;;;14.82;9.52;;;8.60;81.50;;;;;;4990884;28;20108;-77
2022/01/14 08:57:51;;;;;;;16.05;9.82;;;8.60;81.50;;;;;;4990670;28;20112;-76
2022/01/14 09:00:19;;;;;;;16.70;10.20;;;8.60;81.60;;;;;;4990154;28;20019;-79
2022/01/14 09:02:44;;;;;;;16.85;10.25;;;8.60;81.60;;;;;;4964698;28;20026;-80
2022/01/14 09:05:11;;;;;;;15.77;9.65;;;8.60;81.60;;;;;;4956721;28;20109;-78
2022/01/14 09:07:37;;;;;;;16.75;10.50;;;8.60;81.60;;;;;;4964506;28;20439;-78
2022/01/14 09:10:04;;;;;;;16.77;10.43;;;8.60;81.60;;;;;;4985546;28;20066;-76
2022/01/14 09:12:30;;;;;;;16.00;9.73;;;8.70;81.60;;;;;;4982692;28;20026;-80
2022/01/14 09:14:55;;;;;;;15.82;9.57;;;8.60;81.60;;;;;;4953036;28;20027;-76
2022/01/14 09:17:21;;;;;;;16.02;9.85;;;8.60;81.60;;;;;;4936093;29;20307;-79
2022/01/14 09:19:47;;;;;;;16.90;9.73;;;8.60;81.60;;;;;;4966164;28;20043;-77
2022/01/14 09:22:15;;;;;;;16.33;9.80;;;8.60;81.70;;;;;;4955223;28;20041;-78
2022/01/14 09:24:42;;;;;;;16.40;10.27;;;8.60;81.70;;;;;;4957917;28;20030;-79
2022/01/14 09:27:08;;;;;;;18.00;10.52;;;8.60;81.70;;;;;;4977341;28;20031;-76
2022/01/14 09:29:33;;;;;;;16.38;10.07;;;8.60;81.30;;;;;;4962835;28;20061;-77
2022/01/14 09:31:59;;;;;;;18.85;10.32;;;8.60;81.40;;;;;;4970379;28;20081;-77
2022/01/14 09:34:24;;;;;;;16.75;9.60;;;8.60;81.60;;;;;;4970756;28;20027;-78
2022/01/14 09:36:50;;;;;;;16.73;8.95;;;8.60;81.60;;;;;;4953032;28;20041;-76
2022/01/14 09:39:15;;;;;;;18.17;9.48;;;8.60;81.50;;;;;;4953697;28;20552;-77
2022/01/14 09:41:41;;;;;;;15.38;9.13;;;8.60;82.10;;;;;;4970428;28;20035;-77
2022/01/14 09:44:07;;;;;;;15.70;9.27;;;8.60;81.60;;;;;;4970893;28;20043;-77
2022/01/14 09:46:32;;;;;;;17.67;10.07;;;8.60;81.70;;;;;;4953427;28;20023;-80
2022/01/14 09:48:58;;;;;;;15.32;9.23;;;8.60;81.70;;;;;;4953497;28;20027;-77
2022/01/14 09:51:24;;;;;;;15.63;8.75;;;8.60;81.70;;;;;;4970216;28;20486;-78
2022/01/14 09:53:50;;;;;;;16.00;8.80;;;8.60;81.80;;;;;;4953105;28;20150;-78
2022/01/14 09:56:20;;;;;;;13.35;8.00;;;8.60;81.80;;;;;;4970750;28;20107;-76
2022/01/14 09:58:48;;;;;;;14.63;8.38;;;8.60;81.90;;;;;;4949416;28;20027;-78
2022/01/14 10:01:20;;;;;;;15.57;8.52;;;8.60;81.80;;;;;;4952461;28;20029;-77
2022/01/14 10:03:56;;;;;;;;;;;8.60;81.70;;;;;;4965817;28;20062;-76
2022/01/14 10:06:42;;;;;;;15.68;8.48;;;8.60;81.60;;;;;;4971979;28;19945;-75
2022/01/14 10:09:12;;;;;;;14.85;8.40;;;8.60;81.70;;;;;;4972253;28;20441;-77
2022/01/14 10:11:42;;;;;;;14.07;8.93;;;8.60;81.80;;;;;;4989315;28;20022;-77
2022/01/14 10:14:17;;;;;;;14.73;8.15;;;8.60;81.80;;;;;;4989009;28;20041;-76
2022/01/14 10:16:43;;;;;;;16.63;9.13;;;8.60;81.90;;;;;;4972015;28;20022;-79
2022/01/14 10:19:38;;;;;;;15.45;8.65;;;8.60;81.90;;;;;;4989198;28;20081;-77
2022/01/14 10:22:28;;;;;;;16.50;9.35;;;8.60;81.90;;;;;;4989302;28;20738;-76
2022/01/14 10:25:20;;;;;;;15.82;9.30;;;8.60;81.90;;;;;;4973350;28;20031;-77
2022/01/14 10:27:49;;;;;;;16.17;9.05;;;8.60;81.90;;;;;;4949193;28;20041;-77
2022/01/14 10:30:29;;;;;;;17.13;8.73;;;8.60;81.90;;;;;;4969726;28;20053;-76
2022/01/14 10:32:56;;;;;;;15.27;8.93;;;8.60;81.90;;;;;;4969776;28;20150;-75
2022/01/14 10:35:24;;;;;;;15.80;8.93;;;8.60;82.00;;;;;;4969850;28;20138;-77
2022/01/14 10:37:50;;;;;;;14.20;8.27;;;8.60;82.00;;;;;;4970057;28;20653;-77
2022/01/14 10:40:18;;;;;;;13.80;8.25;;;8.60;82.00;;;;;;4969726;28;20109;-79
2022/01/14 10:42:45;;;;;;;15.57;8.90;;;8.70;82.00;;;;;;4969762;28;20019;-78
2022/01/14 10:45:19;;;;;;;15.02;8.35;;;8.60;82.10;;;;;;4969771;28;20026;-77
2022/01/14 10:48:09;;;;;;;13.73;8.35;;;8.60;82.10;;;;;;4952576;28;20158;-78
2022/01/14 10:50:45;;;;;;;14.15;8.48;;;8.60;82.00;;;;;;4952495;28;20038;-76
2022/01/14 10:53:21;;;;;;;16.33;9.50;;;8.60;82.00;;;;;;4952050;28;20042;-78
2022/01/14 10:56:08;;;;;;;15.43;9.00;;;8.60;82.00;;;;;;4952744;28;20059;-77
2022/01/14 10:58:42;;;;;;;15.02;8.50;;;8.60;81.90;;;;;;4969780;28;20105;-77
2022/01/14 11:01:15;;;;;;;14.25;8.02;;;8.70;81.80;;;;;;4969414;28;20152;-77
2022/01/14 11:03:46;;;;;;;15.88;8.60;;;8.60;81.80;;;;;;4969831;28;20033;-78
2022/01/14 11:06:27;;;;;;;15.25;8.85;;;8.60;81.90;;;;;;4968581;28;20039;-79
2022/01/14 11:08:59;;;;;;;15.80;8.63;;;8.60;81.90;;;;;;4969730;28;20039;-77
2022/01/14 11:11:26;;;;;;;13.32;8.35;;;8.60;81.90;;;;;;4969334;28;20050;-78
2022/01/14 11:13:51;;;;;;;15.48;9.00;;;8.60;82.00;;;;;;4952402;28;20494;-77
2022/01/14 11:16:17;;;;;;;13.77;8.77;;;8.60;82.00;;;;;;4952278;28;20034;-78
2022/01/14 11:18:45;;;;;;;14.50;8.13;;;8.60;81.90;;;;;;4952526;28;20062;-79
2022/01/14 11:23:55;;;;;;;15.65;9.32;;;8.60;82.00;;;;;;4969737;28;20097;-79
2022/01/14 11:26:22;;;;;;;13.90;8.45;;;8.60;82.10;;;;;;4969346;28;20038;-77
2022/01/14 11:28:48;;;;;;;16.02;9.88;;;8.60;82.10;;;;;;4969523;28;20550;-81
2022/01/14 11:31:30;;;;;;;15.55;8.95;;;8.60;82.00;;;;;;4969177;28;20037;-77
2022/01/14 11:33:58;;;;;;;15.35;8.52;;;8.60;82.00;;;;;;4952149;28;20031;-78
2022/01/14 11:36:25;;;;;;;15.90;9.25;;;8.60;82.00;;;;;;4952212;28;20478;-78
2022/01/14 11:38:51;;;;;;;14.93;9.30;;;8.60;82.10;;;;;;4971681;28;20043;-77
2022/01/14 11:41:40;;;;;;;15.13;9.10;;;8.60;82.10;;;;;;4955204;28;20078;-76
2022/01/14 11:44:09;;;;;;;15.20;8.63;;;8.60;82.10;;;;;;4972647;28;20414;-77
2022/01/14 11:46:37;;;;;;;15.65;8.77;;;8.60;82.10;;;;;;4955370;28;20485;-77
2022/01/14 11:49:34;;;;;;;14.57;9.35;;;8.60;82.10;;;;;;4955405;28;20029;-77
2022/01/14 11:52:02;;;;;;;15.60;9.45;;;8.60;82.10;;;;;;4972219;28;20510;-77
2022/01/14 11:54:43;;;;;;;15.00;9.63;;;8.60;82.10;;;;;;4955306;28;20027;-78
2022/01/14 11:57:10;;;;;;;14.75;9.45;;;8.60;82.10;;;;;;4972470;28;20070;-76
2022/01/14 11:59:37;;;;;;;14.95;9.05;;;8.60;82.10;;;;;;4955206;28;20031;-77
2022/01/14 12:02:27;;;;;;;16.00;9.35;;;8.60;82.10;;;;;;4972155;28;20378;-77
2022/01/14 12:05:01;;;;;;;15.57;9.52;;;8.60;82.20;;;;;;4972399;28;20047;-82
2022/01/14 12:07:27;;;;;;;16.67;9.82;;;8.60;82.20;;;;;;4972331;28;20039;-76
2022/01/14 12:10:07;;;;;;;16.35;10.07;;;8.60;82.20;;;;;;4954955;28;20619;-78
2022/01/14 12:12:34;;;;;;;15.85;9.38;;;8.60;82.30;;;;;;4972013;28;20043;-79
2022/01/14 12:15:04;;;;;;;16.80;10.00;;;8.60;82.30;;;;;;4972212;28;20026;-76
2022/01/14 12:17:42;;;;;;;17.77;9.85;;;8.60;82.30;;;;;;4972025;28;20026;-77
2022/01/14 12:20:09;;;;;;;15.85;9.07;;;8.60;82.30;;;;;;4954803;28;20105;-77
2022/01/14 12:22:35;;;;;;;16.60;10.30;;;8.60;82.30;;;;;;4971598;28;20027;-77
2022/01/14 12:25:00;;;;;;;16.67;9.90;;;8.60;82.40;;;;;;4972083;28;20781;-76
2022/01/14 12:27:28;;;;;;;16.42;9.68;;;8.60;82.40;;;;;;4954588;28;20368;-77
2022/01/14 12:30:05;;;;;;;15.70;9.95;;;8.60;82.40;;;;;;4953683;28;20027;-76
2022/01/14 12:32:33;;;;;;;18.13;10.05;;;8.60;82.50;;;;;;4954532;28;20030;-78
2022/01/14 12:35:00;;;;;;;16.25;9.82;;;8.60;82.50;;;;;;4954548;28;20023;-80
2022/01/14 12:37:30;;;;;;;17.30;9.80;;;8.60;82.40;;;;;;4954352;28;20019;-80
2022/01/14 12:40:01;;;;;;;17.20;10.38;;;8.60;82.50;;;;;;4974467;28;20109;-77
2022/01/14 12:42:26;;;;;;;18.45;10.10;;;8.60;82.50;;;;;;4973500;28;20034;-76
2022/01/14 12:44:53;;;;;;;17.30;10.73;;;8.60;82.50;;;;;;4990854;28;20041;-78
2022/01/14 12:47:33;;;;;;;17.20;10.10;;;8.60;82.50;;;;;;4973847;28;20026;-75
2022/01/14 12:50:05;;;;;;;17.60;9.70;;;8.70;82.50;;;;;;4990768;28;20045;-77
2022/01/14 12:52:38;;;;;;;17.30;10.38;;;8.60;82.50;;;;;;4972746;28;20030;-76
2022/01/14 12:55:08;;;;;;;18.98;10.75;;;8.60;82.50;;;;;;4967244;28;20026;-76
2022/01/14 12:57:34;;;;;;;18.90;10.23;;;8.60;82.60;;;;;;4971191;28;20100;-76
2022/01/14 13:00:00;;;;;;;16.60;9.60;;;8.60;82.60;;;;;;4971081;28;20023;-78
2022/01/14 13:02:29;;;;;;;18.88;10.55;;;8.60;82.60;;;;;;4970824;28;20062;-77
2022/01/14 13:05:19;;;;;;;16.60;10.43;;;8.60;82.50;;;;;;4971085;28;20037;-76
2022/01/14 13:07:46;;;;;;;18.13;10.80;;;8.60;82.60;;;;;;4971264;28;20081;-77
2022/01/14 13:10:13;;;;;;;17.45;10.35;;;8.60;82.70;;;;;;4953712;28;20081;-77
2022/01/14 13:12:40;;;;;;;17.27;10.65;;;8.50;82.70;;;;;;4970422;28;20031;-76